Página principal
Imagens de satélite Previsões 15 diasClimaCiclones Descargas eléctricas AeroportosFAQ Notícias Sobre
Tempo : Europa África América do Norte América do Sul Ásia Austrália-Oceania Outros
Línguas Contacto

Cambridge, Inglaterra

latitude: 52-12N, longitude: 000-11E, altura: 15 m


METAR: EGSC 160720Z VRB01KT CAVOK 06/// Q1030
short-TAF: EGSC 160614Z 1606/1615 14003KT CAVOK
long-TAF: em falta

Hora: 08:41 (07:41 UTC)

Observação actual do tempo

O boletim foi feito há 21 minutos, às 07:20 UTC  
Vento 01 kt com direcção variável
Temperatura 6°C
Pressão 1030 hPa
Visibilidade 10 km ou mais
sem nuvens abaixo de 1500 metros e sem cumulonimbus

Mudar unidades

Previsão

O boletim foi feito há 1 hora e 23 minutos, às 06:18 UTC  
Previsão válida de 16 às 06 UTC a 16 às 15 UTC
Vento 03 kt de sudeste
Visibilidade 10 km ou mais
sem nuvens abaixo de 1500 metros e sem cumulonimbus
As informações contidas neste sítio estão sujeitas a uma declaração de exoneração de responsabilidade
Tempo : Europa África América do Norte América do Sul Ásia Austrália-Oceania Outros
Imagens de satélite Previsões 15 diasClimaCiclones Descargas eléctricas AeroportosFAQ Línguas Contacto Notícias Sobre